createdAt,value
2023-05-25T00:01:49.218Z,99928.97
2023-05-25T00:04:19.529Z,99924.78
2023-05-25T00:06:47.592Z,99922.00
2023-05-25T00:09:15.454Z,99930.94
2023-05-25T00:11:43.285Z,99928.00
2023-05-25T00:14:10.833Z,99932.53
2023-05-25T00:16:40.542Z,99931.84
2023-05-25T00:19:10.652Z,99930.59
2023-05-25T00:21:38.425Z,99925.37
2023-05-25T00:24:06.139Z,99924.06
2023-05-25T00:26:35.437Z,99931.84
2023-05-25T00:29:03.978Z,99924.81
2023-05-25T00:31:35.625Z,99922.69
2023-05-25T00:34:03.439Z,99920.28
2023-05-25T00:36:30.873Z,99925.50
2023-05-25T00:38:58.299Z,99927.03
2023-05-25T00:41:26.295Z,99927.66
2023-05-25T00:43:53.676Z,99935.28
2023-05-25T00:46:21.119Z,99935.94
2023-05-25T00:48:48.805Z,99935.19
2023-05-25T00:51:16.892Z,99936.62
2023-05-25T00:53:44.293Z,99937.59
2023-05-25T00:56:18.254Z,99936.16
2023-05-25T00:58:45.717Z,99938.59
2023-05-25T01:01:13.805Z,99940.97
2023-05-25T01:03:43.060Z,99931.78
2023-05-25T01:06:13.170Z,99939.03
2023-05-25T01:08:42.292Z,99939.75
2023-05-25T01:11:11.499Z,99935.75
2023-05-25T01:13:38.929Z,99940.94
2023-05-25T01:16:06.820Z,99937.44
2023-05-25T01:18:34.276Z,99947.41
2023-05-25T01:21:13.197Z,99949.25
2023-05-25T01:23:45.066Z,99946.53
2023-05-25T01:26:15.384Z,99949.38
2023-05-25T01:28:46.579Z,99940.53
2023-05-25T01:31:14.174Z,99948.59
2023-05-25T01:33:43.108Z,99949.31
2023-05-25T01:36:10.818Z,99949.97
2023-05-25T01:38:39.034Z,99946.38
2023-05-25T01:41:06.458Z,99943.84
2023-05-25T01:43:34.175Z,99954.03
2023-05-25T01:46:13.049Z,99949.09
2023-05-25T01:48:47.158Z,99949.50
2023-05-25T01:51:19.206Z,99953.75
2023-05-25T01:53:50.820Z,99954.06
2023-05-25T01:56:18.421Z,99951.38
2023-05-25T01:58:47.055Z,99959.25
2023-05-25T02:01:15.324Z,99966.34
2023-05-25T02:03:43.070Z,99962.06
2023-05-25T02:06:10.466Z,99961.09
2023-05-25T02:08:37.871Z,99962.09
2023-05-25T02:11:05.644Z,99964.47
2023-05-25T02:13:33.022Z,99965.59
2023-05-25T02:16:00.992Z,99961.09
2023-05-25T02:18:29.153Z,99957.31
2023-05-25T02:20:56.816Z,99971.50
2023-05-25T02:23:24.697Z,99967.84
2023-05-25T02:25:52.172Z,99966.09
2023-05-25T02:28:20.047Z,99967.03
2023-05-25T02:30:47.563Z,99972.41
2023-05-25T02:33:15.010Z,99965.81
2023-05-25T02:35:43.155Z,99966.16
2023-05-25T02:38:11.065Z,99960.84
2023-05-25T02:40:38.506Z,99966.09
2023-05-25T02:43:06.190Z,99968.97
2023-05-25T02:45:33.730Z,99975.63
2023-05-25T02:48:01.252Z,99977.78
2023-05-25T02:50:29.218Z,99983.84
2023-05-25T02:52:56.858Z,99982.12
2023-05-25T02:55:26.168Z,99978.78
2023-05-25T02:57:54.177Z,99977.00
2023-05-25T03:00:23.771Z,99983.13
2023-05-25T03:02:51.384Z,99997.88
2023-05-25T03:05:19.308Z,99991.50
2023-05-25T03:07:47.904Z,99992.87
2023-05-25T03:10:15.339Z,99998.94
2023-05-25T03:12:43.038Z,99993.97
2023-05-25T03:15:13.216Z,99998.66
2023-05-25T03:17:40.945Z,99995.53
2023-05-25T03:20:10.555Z,99996.66
2023-05-25T03:22:39.535Z,100002.94
2023-05-25T03:25:07.428Z,100003.09
2023-05-25T03:27:35.121Z,99998.94
2023-05-25T03:30:02.508Z,100002.34
2023-05-25T03:32:30.653Z,100001.12
2023-05-25T03:34:58.365Z,99996.13
2023-05-25T03:37:26.134Z,100003.94
2023-05-25T03:39:53.525Z,100001.59
2023-05-25T03:42:21.155Z,99996.34
2023-05-25T03:44:48.496Z,99997.03
2023-05-25T03:47:16.199Z,99999.38
2023-05-25T03:49:43.835Z,100005.97
2023-05-25T03:52:11.193Z,100009.66
2023-05-25T03:54:38.534Z,100006.06
2023-05-25T03:57:06.210Z,100005.28
2023-05-25T03:59:33.627Z,100005.19
2023-05-25T04:02:00.990Z,100020.44
2023-05-25T04:04:29.900Z,100013.47
2023-05-25T04:06:57.292Z,100021.28
2023-05-25T04:09:24.614Z,100025.75
2023-05-25T04:11:52.302Z,100026.25
2023-05-25T04:14:21.443Z,100028.72
2023-05-25T04:16:49.351Z,100026.59
2023-05-25T04:19:17.335Z,100019.25
2023-05-25T04:21:44.684Z,100021.50
2023-05-25T04:24:12.371Z,100021.88
2023-05-25T04:26:41.459Z,100024.44
2023-05-25T04:29:09.889Z,100027.34
2023-05-25T04:31:40.301Z,100029.72
2023-05-25T04:34:09.709Z,100034.47
2023-05-25T04:36:38.917Z,100026.03
2023-05-25T04:39:07.390Z,100022.25
2023-05-25T04:41:36.026Z,100033.16
2023-05-25T04:44:09.798Z,100042.41
2023-05-25T04:46:39.188Z,100033.28
2023-05-25T04:49:08.572Z,100031.62
2023-05-25T04:51:37.215Z,100024.00
2023-05-25T04:54:06.027Z,100028.59
2023-05-25T04:56:33.678Z,100034.78
2023-05-25T04:59:01.217Z,100036.22
2023-05-25T05:01:29.449Z,100041.91
2023-05-25T05:03:57.304Z,100040.97
2023-05-25T05:06:25.772Z,100037.47
2023-05-25T05:08:53.630Z,100032.34
2023-05-25T05:11:22.103Z,100045.50
2023-05-25T05:13:49.654Z,100030.56
2023-05-25T05:16:17.513Z,100031.97
2023-05-25T05:18:45.012Z,100023.69
2023-05-25T05:21:12.515Z,100015.59
2023-05-25T05:23:41.180Z,100018.34
2023-05-25T05:26:11.415Z,100010.37
2023-05-25T05:28:38.967Z,100001.59
2023-05-25T05:31:07.644Z,100005.56
2023-05-25T05:33:35.483Z,100002.63
2023-05-25T05:36:04.730Z,99999.81
2023-05-25T05:38:32.542Z,99993.44
2023-05-25T05:41:00.086Z,100005.94
2023-05-25T05:43:31.041Z,99994.69
2023-05-25T05:45:58.829Z,99988.84
2023-05-25T05:48:26.353Z,99998.09
2023-05-25T05:50:53.801Z,99992.69
2023-05-25T05:53:21.732Z,99986.59
2023-05-25T05:55:52.379Z,99994.91
2023-05-25T05:58:21.675Z,99996.75
2023-05-25T06:00:49.701Z,99996.13
2023-05-25T06:03:17.470Z,100003.84
2023-05-25T06:05:45.172Z,100002.97
2023-05-25T06:08:13.680Z,100005.78
2023-05-25T06:10:44.295Z,99996.59
2023-05-25T06:13:11.929Z,100008.94
2023-05-25T06:15:39.520Z,100001.38
2023-05-25T06:18:08.145Z,100019.06
2023-05-25T06:20:36.185Z,100014.22
2023-05-25T06:23:03.713Z,100012.59
2023-05-25T06:25:31.390Z,100013.66
2023-05-25T06:27:59.404Z,100004.97
2023-05-25T06:30:26.809Z,100004.75
2023-05-25T06:32:54.542Z,100012.75
2023-05-25T06:35:21.972Z,100019.59
2023-05-25T06:37:50.333Z,100019.25
2023-05-25T06:40:18.735Z,100018.75
2023-05-25T06:42:46.290Z,100012.50
2023-05-25T06:45:24.390Z,100013.75
2023-05-25T06:47:51.940Z,100016.31
2023-05-25T06:50:20.318Z,100017.41
2023-05-25T06:52:48.030Z,100012.69
2023-05-25T06:55:15.442Z,100021.09
2023-05-25T06:57:43.779Z,100022.81
2023-05-25T07:00:12.249Z,100000.37
2023-05-25T07:02:39.829Z,100017.44
2023-05-25T07:05:07.850Z,100006.72
2023-05-25T07:07:35.669Z,100032.19
2023-05-25T07:10:03.966Z,100028.31
2023-05-25T07:12:31.539Z,100032.72
2023-05-25T07:14:59.240Z,100027.00
2023-05-25T07:17:26.853Z,100033.31
2023-05-25T07:19:54.561Z,100036.87
2023-05-25T07:22:23.622Z,100023.84
2023-05-25T07:24:51.069Z,100034.44
2023-05-25T07:27:19.673Z,100043.25
2023-05-25T07:29:47.370Z,100031.31
2023-05-25T07:32:14.751Z,100015.75
2023-05-25T07:34:42.183Z,100020.66
2023-05-25T07:37:09.916Z,100024.63
2023-05-25T07:39:37.354Z,100016.69
2023-05-25T07:42:04.945Z,100018.84
2023-05-25T07:44:33.042Z,100029.41
2023-05-25T07:47:00.900Z,100042.31
2023-05-25T07:49:28.486Z,100055.47
2023-05-25T07:51:56.250Z,100053.28
2023-05-25T07:54:24.187Z,100046.41
2023-05-25T07:56:52.046Z,100037.84
2023-05-25T07:59:20.393Z,100037.81
2023-05-25T08:01:48.076Z,100042.59
2023-05-25T08:04:19.084Z,100034.28
2023-05-25T08:06:47.575Z,100027.50
2023-05-25T08:09:15.807Z,100026.00
2023-05-25T08:11:45.171Z,100029.78
2023-05-25T08:14:12.536Z,100036.38
2023-05-25T08:16:40.013Z,100023.91
2023-05-25T08:19:07.956Z,100040.63
2023-05-25T08:21:37.644Z,100037.13
2023-05-25T08:24:06.053Z,100040.41
2023-05-25T08:26:53.153Z,100043.50
2023-05-25T08:29:22.218Z,100036.22
2023-05-25T08:31:50.698Z,100042.91
2023-05-25T08:34:18.157Z,100028.31
2023-05-25T08:36:46.056Z,100024.25
2023-05-25T08:39:13.898Z,100019.78
2023-05-25T08:41:43.418Z,100032.41
2023-05-25T08:44:11.405Z,100019.44
2023-05-25T08:46:39.873Z,100024.16
2023-05-25T08:49:14.604Z,100025.38
2023-05-25T08:51:43.716Z,100022.38
2023-05-25T08:54:12.825Z,100027.09
2023-05-25T08:56:51.486Z,100030.97
2023-05-25T08:59:36.448Z,100019.31
2023-05-25T09:02:06.766Z,100025.19
2023-05-25T09:04:36.558Z,100034.59
2023-05-25T09:07:10.535Z,100019.75
2023-05-25T09:09:39.600Z,100024.50
2023-05-25T09:12:07.629Z,100019.59
2023-05-25T09:14:38.215Z,100014.94
2023-05-25T09:17:08.921Z,100022.47
2023-05-25T09:19:37.230Z,100019.59
2023-05-25T09:22:14.728Z,100017.19
2023-05-25T09:24:44.700Z,100033.00
2023-05-25T09:27:13.621Z,100040.34
2023-05-25T09:29:41.014Z,100044.41
2023-05-25T09:32:08.774Z,100045.44
2023-05-25T09:34:36.240Z,100031.59
2023-05-25T09:37:14.606Z,100030.06
2023-05-25T09:39:43.328Z,100045.47
2023-05-25T09:42:11.520Z,100043.84
2023-05-25T09:44:39.672Z,100051.38
2023-05-25T09:47:07.316Z,100057.78
2023-05-25T09:49:34.935Z,100073.12
2023-05-25T09:52:02.448Z,100058.91
2023-05-25T09:54:30.174Z,100047.50
2023-05-25T09:56:57.566Z,100051.69
2023-05-25T09:59:25.335Z,100040.00
2023-05-25T10:01:56.926Z,100051.88
2023-05-25T10:04:25.151Z,100048.59
2023-05-25T10:06:52.733Z,100050.53
2023-05-25T10:09:20.450Z,100032.75
2023-05-25T10:11:48.299Z,100044.06
2023-05-25T10:14:19.641Z,100059.88
2023-05-25T10:16:50.093Z,100054.84
2023-05-25T10:19:22.008Z,100054.50
2023-05-25T10:22:00.992Z,100060.31
2023-05-25T10:24:34.988Z,100061.88
2023-05-25T10:27:10.843Z,100058.69
2023-05-25T10:29:42.630Z,100063.13
2023-05-25T10:32:10.046Z,100042.78
2023-05-25T10:34:37.530Z,100047.53
2023-05-25T10:37:06.951Z,100052.78
2023-05-25T10:39:37.029Z,100044.69
2023-05-25T10:42:04.917Z,100048.03
2023-05-25T10:44:32.345Z,100043.69
2023-05-25T10:46:59.812Z,100040.84
2023-05-25T10:49:34.332Z,100039.28
2023-05-25T10:52:02.410Z,100038.28
2023-05-25T10:54:33.555Z,100051.78
2023-05-25T10:57:14.282Z,100049.09
2023-05-25T10:59:45.153Z,100032.44
2023-05-25T11:02:12.717Z,100035.66
2023-05-25T11:04:40.407Z,100050.44
2023-05-25T11:07:13.302Z,100048.50
2023-05-25T11:09:43.437Z,100037.88
2023-05-25T11:12:21.528Z,100040.03
2023-05-25T11:15:16.865Z,100052.62
2023-05-25T11:17:46.074Z,100035.16
2023-05-25T11:20:27.737Z,100048.03
2023-05-25T11:22:57.214Z,100033.00
2023-05-25T11:25:40.477Z,100034.94
2023-05-25T11:28:08.878Z,100025.38
2023-05-25T11:30:36.737Z,100027.28
2023-05-25T11:33:04.539Z,100030.44
2023-05-25T11:35:33.885Z,100023.13
2023-05-25T11:38:01.334Z,100021.53
2023-05-25T11:40:31.661Z,100015.81
2023-05-25T11:43:00.822Z,100015.03
2023-05-25T11:45:33.463Z,100021.25
2023-05-25T11:48:01.290Z,100019.09
2023-05-25T11:50:28.744Z,100019.59
2023-05-25T11:52:56.260Z,100012.81
2023-05-25T11:55:23.916Z,100007.91
2023-05-25T11:57:57.762Z,100002.34
2023-05-25T12:00:27.082Z,100001.62
2023-05-25T12:02:54.947Z,99995.84
2023-05-25T12:05:23.433Z,99997.53
2023-05-25T12:07:51.410Z,99986.91
2023-05-25T12:10:19.255Z,99991.47
2023-05-25T12:12:50.812Z,99988.28
2023-05-25T12:15:22.282Z,99980.09
2023-05-25T12:17:50.464Z,99989.94
2023-05-25T12:20:18.005Z,99986.09
2023-05-25T12:22:45.845Z,99972.19
2023-05-25T12:25:14.153Z,99972.13
2023-05-25T12:27:41.887Z,99977.66
2023-05-25T12:30:10.539Z,99995.63
2023-05-25T12:33:02.937Z,99973.31
2023-05-25T12:35:44.127Z,99975.75
2023-05-25T12:38:15.497Z,99978.47
2023-05-25T12:40:43.198Z,99972.16
2023-05-25T12:43:12.103Z,99966.09
2023-05-25T12:45:41.534Z,99969.69
2023-05-25T12:48:09.120Z,99957.28
2023-05-25T12:50:37.211Z,99968.56
2023-05-25T12:53:05.229Z,99964.22
2023-05-25T12:55:33.444Z,99969.94
2023-05-25T12:58:07.263Z,99969.34
2023-05-25T13:00:35.602Z,99978.16
2023-05-25T13:03:03.478Z,99971.94
2023-05-25T13:05:32.998Z,99955.81
2023-05-25T13:08:01.711Z,99949.56
2023-05-25T13:10:29.666Z,99950.91
2023-05-25T13:12:58.543Z,99956.66
2023-05-25T13:15:26.884Z,99953.38
2023-05-25T13:17:54.931Z,99942.38
2023-05-25T13:20:23.613Z,99947.72
2023-05-25T13:22:52.429Z,99946.56
2023-05-25T13:25:22.007Z,99940.00
2023-05-25T13:27:50.288Z,99942.47
2023-05-25T13:30:18.175Z,99941.94
2023-05-25T13:32:46.178Z,99941.88
2023-05-25T13:35:33.458Z,99932.16
2023-05-25T13:38:01.154Z,99939.69
2023-05-25T13:40:28.566Z,99935.41
2023-05-25T13:42:56.322Z,99923.94
2023-05-25T13:45:24.075Z,99914.28
2023-05-25T13:47:51.644Z,99915.78
2023-05-25T13:50:19.911Z,99912.47
2023-05-25T13:52:49.217Z,99906.47
2023-05-25T13:55:16.622Z,99905.66
2023-05-25T13:57:44.009Z,99903.75
2023-05-25T14:00:12.161Z,99902.37
2023-05-25T14:02:39.981Z,99911.38
2023-05-25T14:05:07.661Z,99904.72
2023-05-25T14:07:35.096Z,99895.63
2023-05-25T14:10:02.807Z,99890.12
2023-05-25T14:12:30.411Z,99892.25
2023-05-25T14:14:57.851Z,99886.87
2023-05-25T14:17:25.674Z,99892.84
2023-05-25T14:19:53.115Z,99895.59
2023-05-25T14:22:20.596Z,99881.16
2023-05-25T14:24:48.370Z,99892.31
2023-05-25T14:27:20.857Z,99883.88
2023-05-25T14:29:48.974Z,99889.06
2023-05-25T14:32:17.147Z,99891.97
2023-05-25T14:34:44.602Z,99891.03
2023-05-25T14:37:12.251Z,99887.37
2023-05-25T14:39:39.661Z,99884.13
2023-05-25T14:42:07.300Z,99893.38
2023-05-25T14:44:34.985Z,99889.03
2023-05-25T14:47:02.835Z,99876.25
2023-05-25T14:49:30.446Z,99872.97
2023-05-25T14:51:58.139Z,99875.62
2023-05-25T14:54:25.662Z,99877.06
2023-05-25T14:56:53.085Z,99873.22
2023-05-25T14:59:20.763Z,99887.91
2023-05-25T15:01:48.177Z,99882.28
2023-05-25T15:04:15.660Z,99883.41
2023-05-25T15:06:43.352Z,99884.00
2023-05-25T15:09:12.750Z,99878.22
2023-05-25T15:11:40.164Z,99872.16
2023-05-25T15:14:07.925Z,99875.22
2023-05-25T15:16:35.672Z,99874.00
2023-05-25T15:19:03.134Z,99872.88
2023-05-25T15:21:30.811Z,99874.03
2023-05-25T15:23:58.237Z,99885.06
2023-05-25T15:26:26.374Z,99871.50
2023-05-25T15:28:54.146Z,99868.78
2023-05-25T15:31:21.572Z,99867.69
2023-05-25T15:33:56.600Z,99878.59
2023-05-25T15:36:25.759Z,99876.31
2023-05-25T15:38:53.185Z,99868.75
2023-05-25T15:41:20.957Z,99872.00
2023-05-25T15:43:57.909Z,99869.25
2023-05-25T15:46:25.944Z,99870.63
2023-05-25T15:48:54.069Z,99873.75
2023-05-25T15:51:21.594Z,99869.31
2023-05-25T15:53:49.034Z,99874.03
2023-05-25T15:56:16.857Z,99874.09
2023-05-25T15:58:48.775Z,99870.94
2023-05-25T16:01:16.232Z,99874.50
2023-05-25T16:03:44.719Z,99867.94
2023-05-25T16:06:12.282Z,99878.37
2023-05-25T16:08:39.649Z,99884.31
2023-05-25T16:11:07.333Z,99890.56
2023-05-25T16:13:34.711Z,99884.09
2023-05-25T16:16:02.218Z,99881.16
2023-05-25T16:18:29.968Z,99891.22
2023-05-25T16:20:58.009Z,99892.47
2023-05-25T16:23:25.595Z,99882.34
2023-05-25T16:25:53.368Z,99881.69
2023-05-25T16:28:20.771Z,99881.97
2023-05-25T16:30:48.264Z,99879.84
2023-05-25T16:33:16.033Z,99877.28
2023-05-25T16:35:43.835Z,99883.91
2023-05-25T16:38:11.467Z,99885.00
2023-05-25T16:40:39.123Z,99887.59
2023-05-25T16:43:06.654Z,99883.03
2023-05-25T16:45:34.248Z,99891.03
2023-05-25T16:48:01.968Z,99894.72
2023-05-25T16:50:29.433Z,99900.09
2023-05-25T16:52:57.138Z,99894.84
2023-05-25T16:55:27.278Z,99891.88
2023-05-25T16:57:54.725Z,99898.53
2023-05-25T17:00:22.528Z,99893.78
2023-05-25T17:02:50.247Z,99895.59
2023-05-25T17:05:17.726Z,99896.16
2023-05-25T17:07:45.145Z,99898.19
2023-05-25T17:10:12.801Z,99893.25
2023-05-25T17:12:40.192Z,99892.44
2023-05-25T17:15:08.189Z,99888.06
2023-05-25T17:17:35.893Z,99887.63
2023-05-25T17:20:04.117Z,99890.94
2023-05-25T17:22:31.757Z,99887.09
2023-05-25T17:24:59.656Z,99896.59
2023-05-25T17:27:27.038Z,99893.00
2023-05-25T17:29:54.484Z,99900.56
2023-05-25T17:32:22.167Z,99900.06
2023-05-25T17:34:49.564Z,99899.28
2023-05-25T17:37:18.077Z,99908.63
2023-05-25T17:39:46.685Z,99896.38
2023-05-25T17:42:14.053Z,99895.19
2023-05-25T17:44:42.488Z,99892.69
2023-05-25T17:47:11.368Z,99899.63
2023-05-25T17:49:38.965Z,99902.63
2023-05-25T17:52:07.536Z,99905.12
2023-05-25T17:54:35.557Z,99901.87
2023-05-25T17:57:03.075Z,99895.97
2023-05-25T17:59:30.565Z,99899.56
2023-05-25T18:01:58.224Z,99894.22
2023-05-25T18:04:25.936Z,99893.19
2023-05-25T18:06:53.285Z,99897.78
2023-05-25T18:09:20.815Z,99888.63
2023-05-25T18:11:48.540Z,99900.50
2023-05-25T18:14:16.028Z,99905.28
2023-05-25T18:16:44.731Z,99894.81
2023-05-25T18:19:14.707Z,99910.91
2023-05-25T18:21:42.271Z,99908.34
2023-05-25T18:24:10.412Z,99901.94
2023-05-25T18:26:38.121Z,99912.47
2023-05-25T18:29:06.008Z,99908.25
2023-05-25T18:31:33.976Z,99913.94
2023-05-25T18:34:01.843Z,99928.06
2023-05-25T18:36:29.334Z,99925.31
2023-05-25T18:38:56.761Z,99930.69
2023-05-25T18:41:26.894Z,99923.13
2023-05-25T18:43:54.638Z,99932.41
2023-05-25T18:46:22.552Z,99927.53
2023-05-25T18:48:50.229Z,99935.09
2023-05-25T18:51:17.658Z,99935.44
2023-05-25T18:53:45.125Z,99942.53
2023-05-25T18:56:12.820Z,99944.81
2023-05-25T18:58:40.195Z,99943.97
2023-05-25T19:01:07.597Z,99951.12
2023-05-25T19:03:35.530Z,99962.78
2023-05-25T19:06:02.965Z,99963.50
2023-05-25T19:08:30.414Z,99968.44
2023-05-25T19:10:58.034Z,99971.53
2023-05-25T19:13:25.454Z,99968.69
2023-05-25T19:15:52.892Z,99980.13
2023-05-25T19:18:20.629Z,99973.38
2023-05-25T19:20:48.304Z,99977.41
2023-05-25T19:23:16.080Z,99978.16
2023-05-25T19:25:43.933Z,99976.28
2023-05-25T19:28:11.537Z,99973.31
2023-05-25T19:30:39.625Z,99975.78
2023-05-25T19:33:07.357Z,99982.22
2023-05-25T19:35:34.832Z,99984.81
2023-05-25T19:38:02.441Z,99979.41
2023-05-25T19:40:30.907Z,99979.75
2023-05-25T19:42:58.317Z,99974.16
2023-05-25T19:45:25.832Z,99991.94
2023-05-25T19:47:53.842Z,99984.78
2023-05-25T19:50:21.463Z,99983.56
2023-05-25T19:52:48.887Z,99982.56
2023-05-25T19:55:16.548Z,99987.59
2023-05-25T19:57:43.974Z,99992.31
2023-05-25T20:00:21.258Z,99985.16
2023-05-25T20:02:54.122Z,99986.78
2023-05-25T20:05:21.627Z,99995.75
2023-05-25T20:07:50.863Z,99991.84
2023-05-25T20:10:18.568Z,99995.25
2023-05-25T20:12:45.978Z,99994.78
2023-05-25T20:15:13.337Z,99994.91
2023-05-25T20:17:41.118Z,99986.78
2023-05-25T20:20:08.700Z,99997.88
2023-05-25T20:22:36.179Z,100000.28
2023-05-25T20:25:04.021Z,99999.34
2023-05-25T20:27:31.387Z,100001.69
2023-05-25T20:29:58.838Z,100003.66
2023-05-25T20:32:26.578Z,100003.94
2023-05-25T20:34:54.161Z,100010.25
2023-05-25T20:37:21.558Z,100005.41
2023-05-25T20:39:49.239Z,100004.56
2023-05-25T20:42:16.626Z,100000.72
2023-05-25T20:44:43.990Z,100004.84
2023-05-25T20:47:11.610Z,100005.38
2023-05-25T20:49:39.019Z,100006.44
2023-05-25T20:52:06.523Z,100009.31
2023-05-25T20:54:34.183Z,100008.09
2023-05-25T20:57:03.946Z,100002.13
2023-05-25T20:59:32.003Z,99998.25
2023-05-25T21:01:59.851Z,99999.09
2023-05-25T21:04:28.130Z,100009.25
2023-05-25T21:06:56.686Z,100006.78
2023-05-25T21:09:24.352Z,100004.06
2023-05-25T21:11:51.742Z,100003.41
2023-05-25T21:14:19.200Z,100007.13
2023-05-25T21:16:46.888Z,100006.06
2023-05-25T21:19:14.325Z,100009.41
2023-05-25T21:21:41.736Z,100003.63
2023-05-25T21:24:09.412Z,99999.31
2023-05-25T21:26:36.886Z,100002.13
2023-05-25T21:29:04.298Z,100002.28
2023-05-25T21:31:32.014Z,100002.84
2023-05-25T21:34:00.388Z,100004.78
2023-05-25T21:36:28.108Z,100003.47
2023-05-25T21:38:55.802Z,100006.16
2023-05-25T21:41:23.447Z,100010.94
2023-05-25T21:43:50.866Z,100009.41
2023-05-25T21:46:18.496Z,100019.19
2023-05-25T21:48:45.932Z,100019.09
2023-05-25T21:51:13.348Z,100015.47
2023-05-25T21:53:41.070Z,100014.97
2023-05-25T21:56:08.466Z,100015.12
2023-05-25T21:58:35.864Z,100017.38
2023-05-25T22:01:03.603Z,100020.03
2023-05-25T22:03:31.327Z,100021.13
2023-05-25T22:05:58.781Z,100017.78
2023-05-25T22:08:26.173Z,100018.59
2023-05-25T22:10:53.842Z,100019.72
2023-05-25T22:13:21.315Z,100024.81
2023-05-25T22:15:48.679Z,100025.66
2023-05-25T22:18:16.325Z,100021.62
2023-05-25T22:20:43.806Z,100013.84
2023-05-25T22:23:11.581Z,100021.31
2023-05-25T22:25:39.332Z,100019.13
2023-05-25T22:28:06.740Z,100022.25
2023-05-25T22:30:34.226Z,100013.63
2023-05-25T22:33:02.031Z,100015.91
2023-05-25T22:35:29.528Z,100014.91
2023-05-25T22:37:57.021Z,100005.81
2023-05-25T22:40:24.768Z,100007.66
2023-05-25T22:42:52.198Z,100011.06
2023-05-25T22:45:20.408Z,100016.44
2023-05-25T22:47:48.319Z,100011.88
2023-05-25T22:50:15.802Z,100019.69
2023-05-25T22:52:43.220Z,100016.53
2023-05-25T22:55:11.065Z,100014.91
2023-05-25T22:57:39.274Z,100016.28
2023-05-25T23:00:07.204Z,100011.88
2023-05-25T23:02:35.075Z,100010.97
2023-05-25T23:05:02.788Z,100014.72
2023-05-25T23:07:30.229Z,100011.34
2023-05-25T23:09:57.920Z,99999.31
2023-05-25T23:12:25.322Z,99998.97
2023-05-25T23:14:53.493Z,99998.41
2023-05-25T23:17:21.583Z,100011.69
2023-05-25T23:19:48.964Z,100005.44
2023-05-25T23:22:16.337Z,99998.25
2023-05-25T23:24:43.987Z,99998.69
2023-05-25T23:27:11.367Z,100004.16
2023-05-25T23:29:38.738Z,99998.16
2023-05-25T23:32:06.872Z,100000.94
2023-05-25T23:34:34.288Z,99996.78
2023-05-25T23:37:03.336Z,99999.13
2023-05-25T23:39:32.713Z,99999.00
2023-05-25T23:42:00.340Z,100000.56
2023-05-25T23:44:27.884Z,99999.91
2023-05-25T23:46:55.547Z,100003.66
2023-05-25T23:49:23.006Z,100000.28
2023-05-25T23:51:50.392Z,99998.56
2023-05-25T23:54:18.065Z,99999.03
2023-05-25T23:56:45.439Z,100001.16
2023-05-25T23:59:15.102Z,100000.28
